sensor_id;sensor_type;location;lat;lon;timestamp;pressure;altitude;pressure_sealevel;temperature;humidity
20710;BME280;10516;51.518;9.864;2022-10-20T00:00:53;99533.78;;;7.39;77.67
20710;BME280;10516;51.518;9.864;2022-10-20T00:03:18;99517.56;;;7.53;76.59
20710;BME280;10516;51.518;9.864;2022-10-20T00:05:44;99513.25;;;7.97;75.41
20710;BME280;10516;51.518;9.864;2022-10-20T00:08:09;99527.19;;;7.92;75.03
20710;BME280;10516;51.518;9.864;2022-10-20T00:10:34;99465.66;;;7.89;74.66
20710;BME280;10516;51.518;9.864;2022-10-20T00:13:00;99513.63;;;8.32;73.97
20710;BME280;10516;51.518;9.864;2022-10-20T00:15:25;99493.25;;;8.19;74.19
20710;BME280;10516;51.518;9.864;2022-10-20T00:17:51;99505.78;;;8.12;74.61
20710;BME280;10516;51.518;9.864;2022-10-20T00:20:16;99498.47;;;8.32;73.54
20710;BME280;10516;51.518;9.864;2022-10-20T00:22:41;99514.53;;;8.44;73.49
20710;BME280;10516;51.518;9.864;2022-10-20T00:25:07;99481.97;;;8.17;73.66
20710;BME280;10516;51.518;9.864;2022-10-20T00:27:33;99486.22;;;8.24;73.52
20710;BME280;10516;51.518;9.864;2022-10-20T00:29:58;99485.38;;;8.30;73.67
20710;BME280;10516;51.518;9.864;2022-10-20T00:32:23;99499.81;;;8.41;73.67
20710;BME280;10516;51.518;9.864;2022-10-20T00:34:49;99474.47;;;8.14;73.30
20710;BME280;10516;51.518;9.864;2022-10-20T00:37:14;99486.78;;;8.33;72.70
20710;BME280;10516;51.518;9.864;2022-10-20T00:39:40;99503.13;;;8.37;73.19
20710;BME280;10516;51.518;9.864;2022-10-20T00:42:05;99493.75;;;8.34;73.25
20710;BME280;10516;51.518;9.864;2022-10-20T00:44:47;99496.56;;;8.39;73.02
20710;BME280;10516;51.518;9.864;2022-10-20T00:47:17;99471.03;;;8.07;73.87
20710;BME280;10516;51.518;9.864;2022-10-20T00:49:46;99474.06;;;7.86;74.97
20710;BME280;10516;51.518;9.864;2022-10-20T00:52:14;99475.63;;;7.93;74.54
20710;BME280;10516;51.518;9.864;2022-10-20T00:54:39;99487.34;;;8.10;74.07
20710;BME280;10516;51.518;9.864;2022-10-20T00:57:05;99467.00;;;7.98;74.68
20710;BME280;10516;51.518;9.864;2022-10-20T00:59:32;99487.41;;;7.79;75.79
20710;BME280;10516;51.518;9.864;2022-10-20T01:02:01;99480.09;;;7.99;74.68
20710;BME280;10516;51.518;9.864;2022-10-20T01:04:29;99478.25;;;8.24;73.84
20710;BME280;10516;51.518;9.864;2022-10-20T01:06:56;99427.53;;;7.45;75.33
20710;BME280;10516;51.518;9.864;2022-10-20T01:09:22;99454.59;;;7.61;75.42
20710;BME280;10516;51.518;9.864;2022-10-20T01:17:18;99433.81;;;7.82;74.32
20710;BME280;10516;51.518;9.864;2022-10-20T01:28:09;99454.09;;;7.45;77.01
20710;BME280;10516;51.518;9.864;2022-10-20T01:30:43;99443.69;;;7.75;76.32
20710;BME280;10516;51.518;9.864;2022-10-20T01:35:53;99451.84;;;7.74;76.39
20710;BME280;10516;51.518;9.864;2022-10-20T01:38:35;99408.28;;;7.50;76.13
20710;BME280;10516;51.518;9.864;2022-10-20T01:41:32;99413.97;;;7.53;76.34
20710;BME280;10516;51.518;9.864;2022-10-20T01:44:02;99434.53;;;7.40;77.96
20710;BME280;10516;51.518;9.864;2022-10-20T01:46:29;99430.31;;;7.26;77.15
20710;BME280;10516;51.518;9.864;2022-10-20T01:48:57;99396.41;;;6.90;78.57
20710;BME280;10516;51.518;9.864;2022-10-20T01:51:24;99403.91;;;7.37;77.31
20710;BME280;10516;51.518;9.864;2022-10-20T01:53:49;99426.38;;;6.91;79.14
20710;BME280;10516;51.518;9.864;2022-10-20T01:56:19;99411.56;;;7.14;78.30
20710;BME280;10516;51.518;9.864;2022-10-20T01:59:12;99415.19;;;6.82;79.01
20710;BME280;10516;51.518;9.864;2022-10-20T02:02:10;99387.28;;;7.48;77.38
20710;BME280;10516;51.518;9.864;2022-10-20T02:07:22;99377.75;;;7.34;77.53
20710;BME280;10516;51.518;9.864;2022-10-20T02:09:52;99392.41;;;7.43;76.92
20710;BME280;10516;51.518;9.864;2022-10-20T02:12:23;99351.00;;;7.05;78.02
20710;BME280;10516;51.518;9.864;2022-10-20T02:14:52;99371.53;;;6.78;79.12
20710;BME280;10516;51.518;9.864;2022-10-20T02:17:18;99394.22;;;7.18;78.37
20710;BME280;10516;51.518;9.864;2022-10-20T02:19:46;99378.78;;;6.51;79.50
20710;BME280;10516;51.518;9.864;2022-10-20T02:22:14;99375.94;;;6.53;80.73
20710;BME280;10516;51.518;9.864;2022-10-20T02:24:41;99377.19;;;6.88;80.23
20710;BME280;10516;51.518;9.864;2022-10-20T02:27:15;99366.38;;;6.45;80.45
20710;BME280;10516;51.518;9.864;2022-10-20T02:29:48;99363.44;;;7.04;78.41
20710;BME280;10516;51.518;9.864;2022-10-20T02:32:16;99363.88;;;7.01;77.84
20710;BME280;10516;51.518;9.864;2022-10-20T02:34:42;99352.69;;;6.93;77.38
20710;BME280;10516;51.518;9.864;2022-10-20T02:37:09;99360.13;;;6.77;78.87
20710;BME280;10516;51.518;9.864;2022-10-20T02:39:34;99350.53;;;6.76;78.50
20710;BME280;10516;51.518;9.864;2022-10-20T02:42:00;99289.03;;;6.55;78.14
20710;BME280;10516;51.518;9.864;2022-10-20T02:44:25;99285.97;;;7.20;76.73
20710;BME280;10516;51.518;9.864;2022-10-20T02:46:50;99360.63;;;7.86;74.38
20710;BME280;10516;51.518;9.864;2022-10-20T02:49:16;99325.91;;;7.81;75.08
20710;BME280;10516;51.518;9.864;2022-10-20T02:51:41;99317.59;;;7.71;74.44
20710;BME280;10516;51.518;9.864;2022-10-20T02:54:06;99357.72;;;7.88;74.67
20710;BME280;10516;51.518;9.864;2022-10-20T02:56:32;99332.16;;;7.87;74.39
20710;BME280;10516;51.518;9.864;2022-10-20T02:58:57;99353.00;;;7.90;74.44
20710;BME280;10516;51.518;9.864;2022-10-20T03:01:23;99336.75;;;7.80;74.28
20710;BME280;10516;51.518;9.864;2022-10-20T03:03:49;99353.19;;;7.70;75.32
20710;BME280;10516;51.518;9.864;2022-10-20T03:06:15;99323.13;;;7.70;74.49
20710;BME280;10516;51.518;9.864;2022-10-20T03:08:41;99280.91;;;7.12;76.11
20710;BME280;10516;51.518;9.864;2022-10-20T03:11:06;99328.03;;;7.48;75.72
20710;BME280;10516;51.518;9.864;2022-10-20T03:13:32;99282.31;;;6.52;77.24
20710;BME280;10516;51.518;9.864;2022-10-20T03:15:57;99304.88;;;6.68;77.66
20710;BME280;10516;51.518;9.864;2022-10-20T03:18:23;99236.72;;;7.00;75.77
20710;BME280;10516;51.518;9.864;2022-10-20T03:20:52;99337.59;;;7.74;75.03
20710;BME280;10516;51.518;9.864;2022-10-20T03:23:18;99320.88;;;7.73;74.65
20710;BME280;10516;51.518;9.864;2022-10-20T03:25:44;99304.78;;;7.68;74.80
20710;BME280;10516;51.518;9.864;2022-10-20T03:28:09;99332.75;;;7.71;74.73
20710;BME280;10516;51.518;9.864;2022-10-20T03:30:34;99321.59;;;7.80;74.53
20710;BME280;10516;51.518;9.864;2022-10-20T03:33:00;99324.44;;;7.85;74.06
20710;BME280;10516;51.518;9.864;2022-10-20T03:35:25;99288.38;;;7.71;73.91
20710;BME280;10516;51.518;9.864;2022-10-20T03:37:51;99256.59;;;7.40;74.04
20710;BME280;10516;51.518;9.864;2022-10-20T03:40:16;99304.72;;;7.75;74.23
20710;BME280;10516;51.518;9.864;2022-10-20T03:42:42;99306.38;;;7.69;74.42
20710;BME280;10516;51.518;9.864;2022-10-20T03:45:07;99304.13;;;7.73;73.99
20710;BME280;10516;51.518;9.864;2022-10-20T03:47:33;99303.59;;;7.82;74.08
20710;BME280;10516;51.518;9.864;2022-10-20T03:49:58;99288.38;;;7.71;74.00
20710;BME280;10516;51.518;9.864;2022-10-20T03:52:24;99277.50;;;7.54;74.28
20710;BME280;10516;51.518;9.864;2022-10-20T03:54:49;99290.66;;;7.68;74.74
20710;BME280;10516;51.518;9.864;2022-10-20T03:57:14;99266.13;;;7.47;74.20
20710;BME280;10516;51.518;9.864;2022-10-20T03:59:40;99262.03;;;7.27;75.07
20710;BME280;10516;51.518;9.864;2022-10-20T04:02:05;99224.44;;;6.74;75.52
20710;BME280;10516;51.518;9.864;2022-10-20T04:04:31;99279.47;;;7.41;75.45
20710;BME280;10516;51.518;9.864;2022-10-20T04:06:56;99248.09;;;7.31;74.76
20710;BME280;10516;51.518;9.864;2022-10-20T04:09:21;99249.28;;;7.11;74.65
20710;BME280;10516;51.518;9.864;2022-10-20T04:11:47;99280.41;;;6.66;77.04
20710;BME280;10516;51.518;9.864;2022-10-20T04:14:12;99210.00;;;6.32;76.79
20710;BME280;10516;51.518;9.864;2022-10-20T04:16:37;99274.72;;;7.25;76.59
20710;BME280;10516;51.518;9.864;2022-10-20T04:19:03;99244.22;;;6.40;77.21
20710;BME280;10516;51.518;9.864;2022-10-20T04:21:28;99246.03;;;6.02;79.53
20710;BME280;10516;51.518;9.864;2022-10-20T04:23:53;99241.31;;;6.11;79.95
20710;BME280;10516;51.518;9.864;2022-10-20T04:26:19;99253.53;;;6.56;78.59
20710;BME280;10516;51.518;9.864;2022-10-20T04:28:44;99222.50;;;5.55;82.23
20710;BME280;10516;51.518;9.864;2022-10-20T04:31:10;99240.50;;;6.10;79.75
20710;BME280;10516;51.518;9.864;2022-10-20T04:33:35;99221.19;;;6.41;79.01
20710;BME280;10516;51.518;9.864;2022-10-20T04:36:04;99236.34;;;6.65;78.62
20710;BME280;10516;51.518;9.864;2022-10-20T04:38:31;99238.78;;;7.22;76.53
20710;BME280;10516;51.518;9.864;2022-10-20T04:40:57;99200.63;;;7.17;75.41
20710;BME280;10516;51.518;9.864;2022-10-20T04:43:23;99189.22;;;6.92;74.86
20710;BME280;10516;51.518;9.864;2022-10-20T04:45:49;99224.75;;;7.15;75.65
20710;BME280;10516;51.518;9.864;2022-10-20T04:48:14;99249.34;;;7.29;75.51
20710;BME280;10516;51.518;9.864;2022-10-20T04:50:40;99235.25;;;7.04;75.43
20710;BME280;10516;51.518;9.864;2022-10-20T04:53:06;99238.47;;;6.50;77.49
20710;BME280;10516;51.518;9.864;2022-10-20T04:55:32;99137.59;;;6.07;76.71
20710;BME280;10516;51.518;9.864;2022-10-20T04:57:57;99229.63;;;6.25;78.49
20710;BME280;10516;51.518;9.864;2022-10-20T05:00:22;99227.00;;;6.56;79.07
20710;BME280;10516;51.518;9.864;2022-10-20T05:02:48;99216.22;;;6.82;77.36
20710;BME280;10516;51.518;9.864;2022-10-20T05:05:13;99190.69;;;6.88;76.31
20710;BME280;10516;51.518;9.864;2022-10-20T05:07:38;99197.13;;;6.98;76.67
20710;BME280;10516;51.518;9.864;2022-10-20T05:10:04;99201.75;;;7.27;75.30
20710;BME280;10516;51.518;9.864;2022-10-20T05:12:30;99204.03;;;7.24;74.93
20710;BME280;10516;51.518;9.864;2022-10-20T05:14:55;99170.72;;;7.28;74.95
20710;BME280;10516;51.518;9.864;2022-10-20T05:17:21;99178.75;;;7.21;75.15
20710;BME280;10516;51.518;9.864;2022-10-20T05:19:46;99198.38;;;6.64;76.58
20710;BME280;10516;51.518;9.864;2022-10-20T05:22:11;99193.13;;;7.14;75.63
20710;BME280;10516;51.518;9.864;2022-10-20T05:24:37;99194.38;;;7.11;75.78
20710;BME280;10516;51.518;9.864;2022-10-20T05:27:02;99194.31;;;6.62;76.31
20710;BME280;10516;51.518;9.864;2022-10-20T05:29:27;99154.72;;;6.36;77.95
20710;BME280;10516;51.518;9.864;2022-10-20T05:31:53;99133.50;;;6.11;77.47
20710;BME280;10516;51.518;9.864;2022-10-20T05:34:18;99121.38;;;6.22;77.56
20710;BME280;10516;51.518;9.864;2022-10-20T05:36:44;99112.88;;;6.44;76.85
20710;BME280;10516;51.518;9.864;2022-10-20T05:39:10;99171.34;;;7.05;75.71
20710;BME280;10516;51.518;9.864;2022-10-20T05:41:35;99109.25;;;6.39;76.19
20710;BME280;10516;51.518;9.864;2022-10-20T05:44:02;99088.94;;;5.44;78.43
20710;BME280;10516;51.518;9.864;2022-10-20T05:46:31;99167.06;;;5.66;80.37
20710;BME280;10516;51.518;9.864;2022-10-20T05:48:59;99105.16;;;5.67;79.09
20710;BME280;10516;51.518;9.864;2022-10-20T05:51:26;99157.81;;;6.33;78.72
20710;BME280;10516;51.518;9.864;2022-10-20T05:53:56;99093.25;;;5.89;78.45
20710;BME280;10516;51.518;9.864;2022-10-20T05:56:23;99174.53;;;5.82;79.78
20710;BME280;10516;51.518;9.864;2022-10-20T05:58:49;99162.66;;;6.67;78.01
20710;BME280;10516;51.518;9.864;2022-10-20T06:01:20;99167.16;;;7.16;76.04
20710;BME280;10516;51.518;9.864;2022-10-20T06:03:53;99174.41;;;7.27;75.26
20710;BME280;10516;51.518;9.864;2022-10-20T06:06:20;99177.50;;;7.24;74.58
20710;BME280;10516;51.518;9.864;2022-10-20T06:08:46;99141.13;;;7.06;75.32
20710;BME280;10516;51.518;9.864;2022-10-20T06:11:13;99181.34;;;7.28;75.23
20710;BME280;10516;51.518;9.864;2022-10-20T06:13:39;99158.81;;;6.63;77.45
20710;BME280;10516;51.518;9.864;2022-10-20T06:16:24;99168.88;;;6.86;76.69
20710;BME280;10516;51.518;9.864;2022-10-20T06:18:50;99174.13;;;6.92;76.75
20710;BME280;10516;51.518;9.864;2022-10-20T06:21:18;99166.63;;;7.07;75.95
20710;BME280;10516;51.518;9.864;2022-10-20T06:23:44;99182.00;;;6.43;78.46
20710;BME280;10516;51.518;9.864;2022-10-20T06:26:12;99181.34;;;5.59;82.04
20710;BME280;10516;51.518;9.864;2022-10-20T06:28:39;99172.09;;;5.10;84.98
20710;BME280;10516;51.518;9.864;2022-10-20T06:31:16;99177.53;;;4.50;87.39
20710;BME280;10516;51.518;9.864;2022-10-20T06:33:43;99147.47;;;5.87;81.84
20710;BME280;10516;51.518;9.864;2022-10-20T06:36:08;99152.59;;;5.69;83.41
20710;BME280;10516;51.518;9.864;2022-10-20T06:38:34;99146.44;;;5.11;84.06
20710;BME280;10516;51.518;9.864;2022-10-20T06:41:05;99145.41;;;5.89;81.95
20710;BME280;10516;51.518;9.864;2022-10-20T06:43:31;99128.88;;;5.36;82.65
20710;BME280;10516;51.518;9.864;2022-10-20T06:46:01;99145.84;;;4.56;86.82
20710;BME280;10516;51.518;9.864;2022-10-20T06:48:28;99132.63;;;4.76;86.93
20710;BME280;10516;51.518;9.864;2022-10-20T06:50:58;99139.13;;;5.13;85.96
20710;BME280;10516;51.518;9.864;2022-10-20T06:53:24;99148.06;;;5.12;86.66
20710;BME280;10516;51.518;9.864;2022-10-20T06:56:07;99129.94;;;5.28;85.95
20710;BME280;10516;51.518;9.864;2022-10-20T06:58:35;99147.47;;;5.10;86.58
20710;BME280;10516;51.518;9.864;2022-10-20T07:01:02;99147.66;;;5.15;87.70
20710;BME280;10516;51.518;9.864;2022-10-20T07:03:28;99115.50;;;5.05;87.78
20710;BME280;10516;51.518;9.864;2022-10-20T07:05:55;99118.41;;;6.05;83.07
20710;BME280;10516;51.518;9.864;2022-10-20T07:08:21;99141.03;;;6.07;83.01
20710;BME280;10516;51.518;9.864;2022-10-20T07:10:47;99128.44;;;5.46;86.28
20710;BME280;10516;51.518;9.864;2022-10-20T07:13:21;99063.72;;;5.86;82.56
20710;BME280;10516;51.518;9.864;2022-10-20T07:15:46;99134.09;;;5.62;84.92
20710;BME280;10516;51.518;9.864;2022-10-20T07:18:11;99116.66;;;5.42;87.32
20710;BME280;10516;51.518;9.864;2022-10-20T07:20:37;99134.72;;;5.58;86.89
20710;BME280;10516;51.518;9.864;2022-10-20T07:23:02;99110.88;;;5.58;85.43
20710;BME280;10516;51.518;9.864;2022-10-20T07:25:28;99117.22;;;6.01;84.08
20710;BME280;10516;51.518;9.864;2022-10-20T07:27:54;99106.13;;;6.17;84.38
20710;BME280;10516;51.518;9.864;2022-10-20T07:30:19;99091.13;;;6.04;84.56
20710;BME280;10516;51.518;9.864;2022-10-20T07:32:45;99093.41;;;5.94;84.02
20710;BME280;10516;51.518;9.864;2022-10-20T07:35:10;99106.59;;;6.07;85.16
20710;BME280;10516;51.518;9.864;2022-10-20T07:37:35;99105.56;;;5.64;86.63
20710;BME280;10516;51.518;9.864;2022-10-20T07:40:01;99113.97;;;5.99;85.77
20710;BME280;10516;51.518;9.864;2022-10-20T07:42:27;99112.38;;;6.54;82.30
20710;BME280;10516;51.518;9.864;2022-10-20T07:44:53;99119.63;;;6.65;82.71
20710;BME280;10516;51.518;9.864;2022-10-20T07:47:18;99119.06;;;6.88;81.27
20710;BME280;10516;51.518;9.864;2022-10-20T07:49:44;99084.06;;;6.23;82.50
20710;BME280;10516;51.518;9.864;2022-10-20T07:52:11;99097.31;;;6.23;83.51
20710;BME280;10516;51.518;9.864;2022-10-20T07:54:37;99084.97;;;6.11;83.65
20710;BME280;10516;51.518;9.864;2022-10-20T07:57:02;99074.66;;;6.76;81.85
20710;BME280;10516;51.518;9.864;2022-10-20T07:59:27;99113.22;;;6.79;82.15
20710;BME280;10516;51.518;9.864;2022-10-20T08:01:54;99097.44;;;6.84;81.59
20710;BME280;10516;51.518;9.864;2022-10-20T08:04:19;99106.84;;;7.05;81.42
20710;BME280;10516;51.518;9.864;2022-10-20T08:06:44;99111.81;;;7.37;79.53
20710;BME280;10516;51.518;9.864;2022-10-20T08:09:11;99126.41;;;7.28;81.07
20710;BME280;10516;51.518;9.864;2022-10-20T08:11:36;99109.09;;;6.83;82.75
20710;BME280;10516;51.518;9.864;2022-10-20T08:14:02;99114.91;;;7.16;80.85
20710;BME280;10516;51.518;9.864;2022-10-20T08:16:27;99102.59;;;6.79;82.73
20710;BME280;10516;51.518;9.864;2022-10-20T08:18:53;99120.84;;;6.44;85.15
20710;BME280;10516;51.518;9.864;2022-10-20T08:21:20;99114.34;;;6.65;84.33
20710;BME280;10516;51.518;9.864;2022-10-20T08:23:48;99116.22;;;6.82;83.49
20710;BME280;10516;51.518;9.864;2022-10-20T08:26:19;99113.84;;;6.50;86.16
20710;BME280;10516;51.518;9.864;2022-10-20T08:28:45;99094.28;;;6.51;85.56
20710;BME280;10516;51.518;9.864;2022-10-20T08:31:11;99095.19;;;6.07;87.02
20710;BME280;10516;51.518;9.864;2022-10-20T08:33:36;99110.34;;;6.80;85.42
20710;BME280;10516;51.518;9.864;2022-10-20T08:36:08;99103.81;;;7.19;82.60
20710;BME280;10516;51.518;9.864;2022-10-20T08:38:34;99075.84;;;6.56;85.62
20710;BME280;10516;51.518;9.864;2022-10-20T08:41:00;99076.84;;;6.61;85.18
20710;BME280;10516;51.518;9.864;2022-10-20T08:43:27;99088.03;;;7.06;83.83
20710;BME280;10516;51.518;9.864;2022-10-20T08:45:53;99095.69;;;6.96;84.79
20710;BME280;10516;51.518;9.864;2022-10-20T08:48:23;99089.50;;;7.02;84.55
20710;BME280;10516;51.518;9.864;2022-10-20T08:50:50;99093.75;;;6.85;85.36
20710;BME280;10516;51.518;9.864;2022-10-20T08:53:18;99097.34;;;6.48;86.90
20710;BME280;10516;51.518;9.864;2022-10-20T08:55:45;99100.31;;;6.82;85.92
20710;BME280;10516;51.518;9.864;2022-10-20T08:58:19;99096.59;;;6.90;85.90
20710;BME280;10516;51.518;9.864;2022-10-20T09:00:46;99085.91;;;6.97;84.35
20710;BME280;10516;51.518;9.864;2022-10-20T09:03:23;99082.16;;;7.22;84.42
20710;BME280;10516;51.518;9.864;2022-10-20T09:05:56;99045.03;;;7.34;83.33
20710;BME280;10516;51.518;9.864;2022-10-20T09:08:27;99062.97;;;7.02;84.11
20710;BME280;10516;51.518;9.864;2022-10-20T09:10:53;99063.19;;;7.01;84.20
20710;BME280;10516;51.518;9.864;2022-10-20T09:13:23;99083.19;;;7.57;84.42
20710;BME280;10516;51.518;9.864;2022-10-20T09:15:58;99078.06;;;7.74;83.37
20710;BME280;10516;51.518;9.864;2022-10-20T09:18:24;99070.81;;;7.33;85.02
20710;BME280;10516;51.518;9.864;2022-10-20T09:21:03;99057.06;;;7.36;84.85
20710;BME280;10516;51.518;9.864;2022-10-20T09:23:34;99053.28;;;7.62;84.01
20710;BME280;10516;51.518;9.864;2022-10-20T09:26:01;99064.19;;;7.72;84.06
20710;BME280;10516;51.518;9.864;2022-10-20T09:28:27;99038.13;;;7.51;84.84
20710;BME280;10516;51.518;9.864;2022-10-20T09:30:53;99049.16;;;7.66;85.18
20710;BME280;10516;51.518;9.864;2022-10-20T09:33:28;99056.72;;;7.81;84.96
20710;BME280;10516;51.518;9.864;2022-10-20T09:36:19;99042.59;;;7.69;85.15
20710;BME280;10516;51.518;9.864;2022-10-20T09:38:47;99009.34;;;7.48;85.94
20710;BME280;10516;51.518;9.864;2022-10-20T09:41:19;99037.88;;;8.12;83.17
20710;BME280;10516;51.518;9.864;2022-10-20T09:43:57;99029.78;;;8.18;83.28
20710;BME280;10516;51.518;9.864;2022-10-20T09:46:44;99015.63;;;7.95;85.07
20710;BME280;10516;51.518;9.864;2022-10-20T09:49:34;98998.19;;;7.99;84.87
20710;BME280;10516;51.518;9.864;2022-10-20T09:52:03;99020.81;;;8.31;84.16
20710;BME280;10516;51.518;9.864;2022-10-20T09:54:38;99006.69;;;8.19;84.70
20710;BME280;10516;51.518;9.864;2022-10-20T09:57:06;98992.25;;;8.26;84.25
20710;BME280;10516;51.518;9.864;2022-10-20T09:59:35;98997.69;;;8.43;84.64
20710;BME280;10516;51.518;9.864;2022-10-20T10:04:49;98976.50;;;8.25;84.69
20710;BME280;10516;51.518;9.864;2022-10-20T10:09:56;98992.97;;;8.80;83.43
20710;BME280;10516;51.518;9.864;2022-10-20T10:12:22;98968.44;;;8.55;84.48
20710;BME280;10516;51.518;9.864;2022-10-20T10:15:01;98953.88;;;8.69;84.08
20710;BME280;10516;51.518;9.864;2022-10-20T10:17:39;98972.44;;;9.03;84.16
20710;BME280;10516;51.518;9.864;2022-10-20T10:22:38;98952.66;;;8.99;83.07
20710;BME280;10516;51.518;9.864;2022-10-20T10:25:05;98933.53;;;9.02;83.31
20710;BME280;10516;51.518;9.864;2022-10-20T10:27:35;98960.66;;;9.28;83.36
20710;BME280;10516;51.518;9.864;2022-10-20T10:32:48;98920.72;;;9.28;84.15
20710;BME280;10516;51.518;9.864;2022-10-20T10:35:35;98950.78;;;9.85;82.77
20710;BME280;10516;51.518;9.864;2022-10-20T10:38:02;98938.69;;;9.49;82.56
20710;BME280;10516;51.518;9.864;2022-10-20T10:40:30;98941.25;;;9.44;82.49
20710;BME280;10516;51.518;9.864;2022-10-20T10:45:56;98851.53;;;9.33;81.89
20710;BME280;10516;51.518;9.864;2022-10-20T10:51:17;98906.66;;;9.60;82.27
20710;BME280;10516;51.518;9.864;2022-10-20T10:59:05;98907.25;;;9.96;82.09
20710;BME280;10516;51.518;9.864;2022-10-20T11:01:57;98911.88;;;10.17;82.13
20710;BME280;10516;51.518;9.864;2022-10-20T11:07:06;98878.06;;;10.06;82.12
20710;BME280;10516;51.518;9.864;2022-10-20T11:24:04;98865.00;;;10.64;81.44
20710;BME280;10516;51.518;9.864;2022-10-20T11:26:33;98855.59;;;10.57;80.93
20710;BME280;10516;51.518;9.864;2022-10-20T11:29:05;98845.22;;;10.82;80.46
20710;BME280;10516;51.518;9.864;2022-10-20T11:31:53;98840.22;;;10.90;80.58
20710;BME280;10516;51.518;9.864;2022-10-20T11:34:31;98871.66;;;11.05;80.23
20710;BME280;10516;51.518;9.864;2022-10-20T11:37:03;98838.66;;;10.94;79.31
20710;BME280;10516;51.518;9.864;2022-10-20T11:39:40;98832.00;;;10.92;80.13
20710;BME280;10516;51.518;9.864;2022-10-20T11:42:29;98846.56;;;10.84;79.62
20710;BME280;10516;51.518;9.864;2022-10-20T11:44:58;98862.88;;;11.36;79.78
20710;BME280;10516;51.518;9.864;2022-10-20T11:47:31;98854.38;;;11.71;78.23
20710;BME280;10516;51.518;9.864;2022-10-20T11:49:58;98832.78;;;11.46;77.07
20710;BME280;10516;51.518;9.864;2022-10-20T11:55:22;98824.50;;;11.47;76.18
20710;BME280;10516;51.518;9.864;2022-10-20T11:58:02;98835.09;;;11.37;77.29
20710;BME280;10516;51.518;9.864;2022-10-20T12:14:29;98793.06;;;11.64;76.57
20710;BME280;10516;51.518;9.864;2022-10-20T12:17:19;98795.69;;;11.86;75.93
20710;BME280;10516;51.518;9.864;2022-10-20T12:19:49;98793.91;;;11.65;76.38
20710;BME280;10516;51.518;9.864;2022-10-20T12:27:21;98799.88;;;11.72;75.90
20710;BME280;10516;51.518;9.864;2022-10-20T12:29:49;98800.63;;;11.67;76.25
20710;BME280;10516;51.518;9.864;2022-10-20T12:34:58;98810.72;;;11.92;75.82
20710;BME280;10516;51.518;9.864;2022-10-20T12:39:58;98816.41;;;12.06;75.91
20710;BME280;10516;51.518;9.864;2022-10-20T12:42:27;98813.81;;;12.21;75.42
20710;BME280;10516;51.518;9.864;2022-10-20T12:44:53;98816.63;;;12.46;74.86
20710;BME280;10516;51.518;9.864;2022-10-20T12:47:24;98838.00;;;12.36;75.05
20710;BME280;10516;51.518;9.864;2022-10-20T12:52:54;98830.91;;;12.71;74.40
20710;BME280;10516;51.518;9.864;2022-10-20T12:55:30;98804.31;;;12.45;74.59
20710;BME280;10516;51.518;9.864;2022-10-20T12:58:36;98811.38;;;12.71;73.86
20710;BME280;10516;51.518;9.864;2022-10-20T13:03:42;98822.09;;;12.81;73.45
20710;BME280;10516;51.518;9.864;2022-10-20T13:11:57;98828.00;;;12.83;72.71
20710;BME280;10516;51.518;9.864;2022-10-20T13:14:40;98833.84;;;12.70;72.23
20710;BME280;10516;51.518;9.864;2022-10-20T13:17:18;98831.94;;;12.55;72.15
20710;BME280;10516;51.518;9.864;2022-10-20T13:19:48;98814.72;;;12.41;72.26
20710;BME280;10516;51.518;9.864;2022-10-20T13:25:14;98823.28;;;12.38;72.82
20710;BME280;10516;51.518;9.864;2022-10-20T13:27:40;98818.44;;;12.35;72.70
20710;BME280;10516;51.518;9.864;2022-10-20T13:30:08;98819.75;;;12.33;72.21
20710;BME280;10516;51.518;9.864;2022-10-20T13:32:44;98821.09;;;12.30;72.26
20710;BME280;10516;51.518;9.864;2022-10-20T13:35:38;98795.44;;;12.39;71.79
20710;BME280;10516;51.518;9.864;2022-10-20T13:38:15;98796.50;;;12.33;72.91
20710;BME280;10516;51.518;9.864;2022-10-20T13:50:55;98711.72;;;11.87;74.11
20710;BME280;10516;51.518;9.864;2022-10-20T13:53:29;98721.59;;;11.81;74.21
20710;BME280;10516;51.518;9.864;2022-10-20T13:56:03;98743.59;;;11.98;74.14
20710;BME280;10516;51.518;9.864;2022-10-20T13:58:29;98766.94;;;12.13;73.93
20710;BME280;10516;51.518;9.864;2022-10-20T14:01:13;98770.81;;;11.90;74.87
20710;BME280;10516;51.518;9.864;2022-10-20T14:03:45;98794.94;;;11.95;75.45
20710;BME280;10516;51.518;9.864;2022-10-20T14:08:57;98812.84;;;11.90;75.74
20710;BME280;10516;51.518;9.864;2022-10-20T14:11:25;98808.41;;;12.11;74.84
20710;BME280;10516;51.518;9.864;2022-10-20T14:13:55;98787.91;;;11.79;76.39
20710;BME280;10516;51.518;9.864;2022-10-20T14:16:24;98777.81;;;11.91;75.56
20710;BME280;10516;51.518;9.864;2022-10-20T14:19:06;98784.19;;;11.90;76.17
20710;BME280;10516;51.518;9.864;2022-10-20T14:21:45;98749.13;;;11.82;74.95
20710;BME280;10516;51.518;9.864;2022-10-20T14:24:15;98792.53;;;11.94;75.68
20710;BME280;10516;51.518;9.864;2022-10-20T14:26:42;98771.69;;;11.96;75.03
20710;BME280;10516;51.518;9.864;2022-10-20T14:29:13;98795.09;;;12.21;74.68
20710;BME280;10516;51.518;9.864;2022-10-20T14:31:40;98797.69;;;12.11;74.98
20710;BME280;10516;51.518;9.864;2022-10-20T14:34:16;98773.25;;;11.92;75.41
20710;BME280;10516;51.518;9.864;2022-10-20T14:36:42;98761.22;;;11.89;75.14
20710;BME280;10516;51.518;9.864;2022-10-20T14:41:47;98790.97;;;12.03;75.97
20710;BME280;10516;51.518;9.864;2022-10-20T14:44:18;98763.88;;;11.89;75.78
20710;BME280;10516;51.518;9.864;2022-10-20T14:46:46;98779.94;;;11.89;76.42
20710;BME280;10516;51.518;9.864;2022-10-20T14:49:22;98782.09;;;11.97;75.98
20710;BME280;10516;51.518;9.864;2022-10-20T14:52:00;98771.59;;;11.49;77.40
20710;BME280;10516;51.518;9.864;2022-10-20T14:54:36;98775.19;;;11.65;77.54
20710;BME280;10516;51.518;9.864;2022-10-20T14:59:33;98710.66;;;11.46;76.98
20710;BME280;10516;51.518;9.864;2022-10-20T15:02:08;98776.78;;;12.02;76.24
20710;BME280;10516;51.518;9.864;2022-10-20T15:04:43;98769.59;;;11.66;77.72
20710;BME280;10516;51.518;9.864;2022-10-20T15:10:05;98753.78;;;12.01;76.19
20710;BME280;10516;51.518;9.864;2022-10-20T15:23:03;98717.28;;;11.80;76.31
20710;BME280;10516;51.518;9.864;2022-10-20T15:25:34;98750.47;;;11.84;77.03
20710;BME280;10516;51.518;9.864;2022-10-20T15:28:00;98721.78;;;11.70;76.45